Time;durP1;ratioP1;P1;durP2;ratioP2;P2;SDS_P1;SDS_P2;PMS_P1;PMS_P2;Temp;Humidity;BMP_temperature;BMP_pressure;BME280_temperature;BME280_humidity;BME280_pressure;Samples;Min_cycle;Max_cycle;Signal;HPM_P1;HPM_P2
2023/04/10 00:01:59;;;;;;;0.97;0.97;;;;;;;4.70;93.76;100939.78;5035280;28;20530;-50
2023/04/10 00:04:27;;;;;;;1.90;1.57;;;;;;;4.77;93.74;100935.44;5034779;28;21024;-49
2023/04/10 00:06:54;;;;;;;2.70;1.23;;;;;;;4.81;93.76;100926.69;5035286;28;20454;-51
2023/04/10 00:09:20;;;;;;;1.60;1.50;;;;;;;4.58;94.51;100933.56;5035366;28;20458;-49
2023/04/10 00:11:47;;;;;;;4.27;3.00;;;;;;;4.40;94.03;100929.06;5035271;28;20931;-49
2023/04/10 00:14:13;;;;;;;2.47;2.27;;;;;;;4.34;94.28;100939.53;5035131;28;20458;-50
2023/04/10 00:16:40;;;;;;;2.20;1.00;;;;;;;4.34;94.86;100935.16;5034687;28;20455;-49
2023/04/10 00:19:07;;;;;;;1.97;0.90;;;;;;;4.09;96.11;100936.72;5032428;28;20452;-49
2023/04/10 00:21:33;;;;;;;1.20;1.10;;;;;;;4.24;96.53;100932.44;5034910;28;20983;-50
2023/04/10 00:23:59;;;;;;;1.77;1.67;;;;;;;4.20;96.86;100933.31;5035438;28;20448;-50
2023/04/10 00:26:26;;;;;;;2.30;2.03;;;;;;;4.18;96.66;100927.16;5035397;28;20458;-50
2023/04/10 00:28:52;;;;;;;2.27;2.17;;;;;;;4.14;96.36;100932.41;5034832;28;20474;-49
2023/04/10 00:31:19;;;;;;;3.73;2.13;;;;;;;4.30;96.17;100938.66;5034704;28;20482;-50
2023/04/10 00:33:45;;;;;;;2.37;2.10;;;;;;;4.28;95.54;100929.88;5034159;28;20448;-50
2023/04/10 00:36:12;;;;;;;0.57;0.57;;;;;;;4.22;96.17;100936.81;5034568;28;20492;-49
2023/04/10 00:38:38;;;;;;;2.43;2.23;;;;;;;3.93;95.96;100932.19;5030606;28;20543;-50
2023/04/10 00:41:05;;;;;;;2.70;1.87;;;;;;;3.92;95.47;100929.56;5025972;28;20467;-53
2023/04/10 00:43:32;;;;;;;3.63;2.77;;;;;;;3.78;95.86;100939.97;5033227;28;20452;-50
2023/04/10 00:45:58;;;;;;;2.40;1.50;;;;;;;4.02;96.09;100939.31;5034273;28;20481;-50
2023/04/10 00:48:25;;;;;;;1.00;0.90;;;;;;;3.74;96.25;100946.06;5034358;28;20781;-50
2023/04/10 00:50:52;;;;;;;3.57;2.43;;;;;;;3.76;96.33;100944.31;5034257;28;20472;-50
2023/04/10 00:53:18;;;;;;;1.97;1.73;;;;;;;3.86;96.27;100947.06;5033302;28;20451;-50
2023/04/10 00:55:45;;;;;;;0.93;0.93;;;;;;;3.82;95.63;100954.88;5034333;28;20491;-50
2023/04/10 00:58:13;;;;;;;1.63;0.97;;;;;;;3.86;96.68;100956.69;5033756;28;20969;-50
2023/04/10 01:00:40;;;;;;;0.93;0.93;;;;;;;3.80;96.89;100952.25;5034154;28;20988;-49
2023/04/10 01:03:09;;;;;;;8.23;2.10;;;;;;;3.84;97.30;100953.19;5033889;28;20448;-49
2023/04/10 01:05:46;;;;;;;1.53;1.43;;;;;;;3.93;96.34;100944.47;5034125;28;20938;-50
2023/04/10 01:08:43;;;;;;;1.90;1.73;;;;;;;3.78;96.40;100945.22;5031736;28;20481;-49
2023/04/10 01:11:20;;;;;;;3.60;2.50;;;;;;;3.50;96.80;100939.69;5033812;28;20887;-49
2023/04/10 01:13:58;;;;;;;1.50;1.40;;;;;;;3.59;97.64;100936.28;5033935;28;20453;-48
2023/04/10 01:16:30;;;;;;;4.90;3.40;;;;;;;3.68;97.31;100927.59;5022079;28;20486;-51
2023/04/10 01:19:11;;;;;;;5.77;2.43;;;;;;;3.62;98.72;100917.03;5033757;28;21004;-50
2023/04/10 01:21:40;;;;;;;3.30;1.37;;;;;;;3.67;98.49;100907.41;5033344;28;20474;-49
2023/04/10 01:24:19;;;;;;;3.10;1.50;;;;;;;3.79;98.98;100904.91;5033711;28;20455;-49
2023/04/10 01:27:11;;;;;;;2.83;1.53;;;;;;;3.63;100.00;100901.25;5033970;28;20511;-50
2023/04/10 01:29:43;;;;;;;1.57;1.47;;;;;;;3.85;100.00;100891.84;5024385;28;20444;-49
2023/04/10 01:32:13;;;;;;;4.43;1.60;;;;;;;3.99;100.00;100899.84;5032867;28;20480;-50
2023/04/10 01:34:45;;;;;;;2.53;2.10;;;;;;;4.09;98.95;100893.75;5030620;28;20463;-50
2023/04/10 01:37:19;;;;;;;1.33;1.23;;;;;;;4.31;97.93;100898.31;5033480;28;20618;-50
2023/04/10 01:39:53;;;;;;;6.57;2.17;;;;;;;4.20;97.59;100893.84;5033545;28;20447;-49
2023/04/10 01:42:21;;;;;;;1.97;1.87;;;;;;;3.99;97.70;100886.69;5032742;28;20498;-49
2023/04/10 01:44:51;;;;;;;1.67;1.40;;;;;;;3.93;98.05;100884.00;5033265;28;20464;-50
2023/04/10 01:47:18;;;;;;;5.60;2.17;;;;;;;4.18;97.82;100885.06;5033191;28;20974;-50
2023/04/10 01:49:46;;;;;;;1.83;1.73;;;;;;;4.12;97.71;100888.53;5033484;28;20833;-50
2023/04/10 01:52:14;;;;;;;21.43;2.17;;;;;;;3.97;97.69;100886.63;5033226;28;20562;-49
2023/04/10 01:54:44;;;;;;;1.30;1.30;;;;;;;3.92;97.82;100882.22;5031819;28;20460;-50
2023/04/10 01:57:13;;;;;;;1.63;1.53;;;;;;;4.18;97.48;100890.31;5033765;28;20481;-50
2023/04/10 01:59:40;;;;;;;1.67;1.57;;;;;;;4.22;97.54;100886.81;5033031;28;20444;-50
2023/04/10 02:02:07;;;;;;;1.63;1.50;;;;;;;4.25;96.69;100893.00;5025605;28;20482;-50
2023/04/10 02:04:33;;;;;;;1.27;1.17;;;;;;;4.29;96.87;100893.91;5033065;28;20531;-50
2023/04/10 02:07:05;;;;;;;1.73;1.17;;;;;;;4.21;97.63;100891.22;5032997;28;20450;-50
2023/04/10 02:09:42;;;;;;;1.57;1.47;;;;;;;4.34;96.30;100893.06;5032911;28;20447;-50
2023/04/10 02:12:15;;;;;;;2.70;1.37;;;;;;;4.26;96.54;100889.50;5032494;28;20984;-49
2023/04/10 02:14:45;;;;;;;1.57;1.47;;;;;;;3.94;97.46;100886.63;5031699;28;20454;-50
2023/04/10 02:17:14;;;;;;;2.97;2.10;;;;;;;3.95;97.89;100887.50;5028151;28;20451;-49
2023/04/10 02:19:44;;;;;;;2.30;1.10;;;;;;;3.86;97.99;100888.34;5031728;28;20498;-49
2023/04/10 02:22:10;;;;;;;3.90;2.43;;;;;;;4.03;97.53;100880.56;5032580;28;20476;-50
2023/04/10 02:24:37;;;;;;;2.63;2.43;;;;;;;4.01;98.20;100879.69;5032542;28;20936;-50
2023/04/10 02:27:03;;;;;;;2.40;2.23;;;;;;;3.82;98.28;100884.78;5032763;28;20462;-50
2023/04/10 02:29:30;;;;;;;1.50;1.40;;;;;;;3.76;98.86;100886.47;5019240;28;20456;-50
2023/04/10 02:31:56;;;;;;;1.10;1.00;;;;;;;3.83;98.98;100880.38;5028331;28;20491;-50
2023/04/10 02:34:23;;;;;;;2.30;1.27;;;;;;;3.84;98.29;100874.28;5032470;28;20451;-50
2023/04/10 02:36:49;;;;;;;1.60;1.40;;;;;;;3.55;100.00;100876.63;5032287;28;20491;-50
2023/04/10 02:39:15;;;;;;;1.33;1.23;;;;;;;3.32;100.00;100872.94;5032358;28;20513;-50
2023/04/10 02:41:42;;;;;;;2.73;0.90;;;;;;;3.23;100.00;100871.06;5032448;28;20533;-49
2023/04/10 02:44:08;;;;;;;1.60;1.50;;;;;;;3.41;100.00;100868.63;5031847;28;20455;-50
2023/04/10 02:46:34;;;;;;;2.73;2.53;;;;;;;3.47;100.00;100868.69;5032328;28;20501;-50
2023/04/10 02:49:01;;;;;;;7.97;2.40;;;;;;;3.54;100.00;100872.25;5032406;28;20486;-49
2023/04/10 02:51:27;;;;;;;8.57;1.90;;;;;;;3.60;100.00;100861.81;5032081;28;20853;-50
2023/04/10 02:53:54;;;;;;;2.07;1.97;;;;;;;3.74;100.00;100862.81;5032567;28;20448;-49
2023/04/10 02:56:20;;;;;;;1.93;1.80;;;;;;;3.71;99.73;100859.28;5031225;28;20491;-50
2023/04/10 02:58:47;;;;;;;1.70;1.60;;;;;;;3.70;99.64;100857.50;5031287;28;20509;-50
2023/04/10 03:01:13;;;;;;;2.03;1.60;;;;;;;3.67;99.92;100847.84;5025522;28;20999;-50
2023/04/10 03:03:39;;;;;;;2.70;2.50;;;;;;;3.64;99.55;100847.81;5032110;28;20447;-50
2023/04/10 03:06:08;;;;;;;1.47;1.37;;;;;;;3.53;99.65;100838.97;5033731;28;20444;-50
2023/04/10 03:08:35;;;;;;;0.77;0.57;;;;;;;3.68;98.54;100840.84;5036129;28;20475;-50
2023/04/10 03:11:01;;;;;;;2.67;1.17;;;;;;;3.92;99.78;100835.78;5036260;28;20475;-50
2023/04/10 03:13:27;;;;;;;3.60;2.10;;;;;;;3.72;99.36;100838.25;5036264;28;20455;-50
2023/04/10 03:15:54;;;;;;;0.80;0.80;;;;;;;4.14;97.92;100835.06;5036084;28;21008;-50
2023/04/10 03:18:21;;;;;;;1.17;0.90;;;;;;;4.00;98.29;100827.94;5036029;28;20454;-51
2023/04/10 03:20:47;;;;;;;2.00;1.77;;;;;;;4.04;98.18;100825.34;5035838;28;20981;-50
2023/04/10 03:23:14;;;;;;;3.03;1.63;;;;;;;3.93;98.68;100828.75;5035940;28;20450;-49
2023/04/10 03:25:42;;;;;;;2.60;2.50;;;;;;;4.04;97.86;100819.19;5036014;28;20470;-51
2023/04/10 03:28:08;;;;;;;1.27;1.20;;;;;;;4.04;98.36;100825.34;5036026;28;20502;-50
2023/04/10 03:30:35;;;;;;;1.47;1.37;;;;;;;3.85;98.06;100819.09;5035724;28;20467;-50
2023/04/10 03:33:02;;;;;;;0.53;0.53;;;;;;;3.66;99.39;100818.91;5035108;28;20534;-50
2023/04/10 03:35:28;;;;;;;1.20;1.10;;;;;;;3.62;99.16;100812.75;5035487;28;20545;-50
2023/04/10 03:37:55;;;;;;;1.80;1.70;;;;;;;3.79;98.87;100819.03;5035362;28;20865;-49
2023/04/10 03:40:22;;;;;;;0.80;0.80;;;;;;;3.91;98.09;100825.25;5023658;28;20494;-50
2023/04/10 03:42:49;;;;;;;0.53;0.53;;;;;;;3.66;98.17;100822.44;5035583;28;20486;-50
2023/04/10 03:45:15;;;;;;;3.10;2.43;;;;;;;3.83;98.18;100823.44;5035711;28;20509;-50
2023/04/10 03:47:42;;;;;;;0.87;0.87;;;;;;;3.73;98.03;100813.72;5035419;28;20487;-49
2023/04/10 03:50:09;;;;;;;1.27;1.17;;;;;;;3.71;98.47;100826.00;5035672;28;20517;-49
2023/04/10 03:52:35;;;;;;;1.27;1.17;;;;;;;3.70;98.48;100818.97;5035432;28;20558;-50
2023/04/10 03:55:02;;;;;;;1.53;1.23;;;;;;;3.72;98.78;100821.63;5025364;28;20456;-50
2023/04/10 03:57:28;;;;;;;1.60;1.50;;;;;;;3.51;98.65;100830.19;5035111;28;20490;-50
2023/04/10 03:59:55;;;;;;;2.17;2.07;;;;;;;3.56;98.43;100833.72;5035420;28;20470;-51
2023/04/10 04:02:21;;;;;;;2.37;1.10;;;;;;;3.43;98.28;100838.03;5035107;28;20865;-50
2023/04/10 04:04:48;;;;;;;2.80;2.60;;;;;;;3.47;98.74;100838.91;5035206;28;20451;-50
2023/04/10 04:07:15;;;;;;;1.57;1.47;;;;;;;3.51;98.29;100841.56;5035271;28;20505;-50
2023/04/10 04:09:41;;;;;;;5.50;1.10;;;;;;;3.50;97.72;100842.44;5035284;28;20448;-50
2023/04/10 04:12:08;;;;;;;1.03;0.57;;;;;;;3.31;98.19;100842.28;5035045;28;20471;-50
2023/04/10 04:14:34;;;;;;;4.23;1.07;;;;;;;3.31;98.16;100842.28;5023498;28;20462;-51
2023/04/10 04:17:01;;;;;;;1.20;1.13;;;;;;;3.32;98.87;100847.53;5034599;28;20607;-50
2023/04/10 04:19:27;;;;;;;2.40;0.70;;;;;;;3.42;98.58;100848.47;5035264;28;20447;-50
2023/04/10 04:21:54;;;;;;;8.03;1.90;;;;;;;3.30;98.20;100851.03;5034930;28;20498;-50
2023/04/10 04:24:20;;;;;;;3.13;1.40;;;;;;;3.18;98.80;100842.16;5034661;28;20489;-50
2023/04/10 04:26:47;;;;;;;1.27;1.27;;;;;;;3.25;99.29;100846.59;5034855;28;20448;-50
2023/04/10 04:29:13;;;;;;;1.87;1.77;;;;;;;3.13;99.82;100841.19;5034488;28;20456;-50
2023/04/10 04:31:40;;;;;;;0.47;0.40;;;;;;;3.33;99.84;100832.66;5034440;28;20515;-50
2023/04/10 04:34:06;;;;;;;1.27;1.27;;;;;;;3.34;99.17;100832.66;5034967;28;20447;-50
2023/04/10 04:36:33;;;;;;;2.03;1.77;;;;;;;3.22;98.37;100824.66;5034613;28;20491;-50
2023/04/10 04:38:59;;;;;;;0.70;0.70;;;;;;;3.42;98.59;100832.72;5034717;28;20455;-50
2023/04/10 04:41:25;;;;;;;0.90;0.90;;;;;;;3.41;98.51;100830.97;5034297;28;20467;-50
2023/04/10 04:43:54;;;;;;;2.20;1.27;;;;;;;3.24;98.66;100828.19;5033890;28;20459;-51
2023/04/10 04:46:21;;;;;;;7.80;3.53;;;;;;;3.13;99.09;100824.56;5034025;28;20448;-50
2023/04/10 04:48:47;;;;;;;1.40;1.30;;;;;;;3.15;98.83;100836.88;5032366;28;20868;-50
2023/04/10 04:51:14;;;;;;;2.07;1.97;;;;;;;3.32;98.82;100837.03;5033929;28;20544;-51
2023/04/10 04:53:40;;;;;;;1.70;1.60;;;;;;;3.35;98.81;100833.53;5034148;28;20455;-50
2023/04/10 04:56:07;;;;;;;4.90;1.77;;;;;;;3.40;98.82;100834.47;5033762;28;20493;-49
2023/04/10 04:58:33;;;;;;;1.33;1.23;;;;;;;3.20;99.24;100831.66;5033934;28;20451;-51
2023/04/10 05:01:00;;;;;;;1.63;1.53;;;;;;;3.20;99.45;100832.53;5033623;28;20471;-50
2023/04/10 05:03:29;;;;;;;6.60;1.60;;;;;;;3.21;99.73;100836.91;5030166;28;20487;-50
2023/04/10 05:05:56;;;;;;;2.40;1.90;;;;;;;3.18;99.75;100838.66;5030082;28;20853;-50
2023/04/10 05:08:23;;;;;;;3.57;1.43;;;;;;;3.19;99.38;100830.78;5033931;28;20466;-50
2023/04/10 05:10:49;;;;;;;1.27;0.97;;;;;;;3.27;99.58;100833.47;5033363;28;20476;-51
2023/04/10 05:13:16;;;;;;;1.07;0.80;;;;;;;3.24;99.51;100828.19;5029531;28;20510;-51
2023/04/10 05:15:43;;;;;;;0.80;0.80;;;;;;;3.28;98.99;100824.72;5030191;28;20439;-51
2023/04/10 05:18:11;;;;;;;2.20;1.07;;;;;;;3.42;98.80;100823.09;5023508;28;20456;-51
2023/04/10 05:20:37;;;;;;;0.77;0.77;;;;;;;3.38;98.75;100820.44;5026933;28;20471;-51
2023/04/10 05:23:04;;;;;;;0.60;0.60;;;;;;;3.52;98.90;100821.44;5026736;28;20890;-51
2023/04/10 05:25:31;;;;;;;2.23;1.53;;;;;;;3.72;98.27;100826.88;5030570;28;20532;-51
2023/04/10 05:27:57;;;;;;;2.00;1.17;;;;;;;3.77;97.83;100833.91;5031038;28;20448;-51
2023/04/10 05:30:24;;;;;;;2.10;2.00;;;;;;;3.79;97.83;100832.16;5032670;28;20523;-51
2023/04/10 05:32:50;;;;;;;1.10;0.90;;;;;;;3.83;97.47;100836.56;5047156;23;20561;-51
2023/04/10 05:35:17;;;;;;;1.30;1.23;;;;;;;3.81;97.86;100835.69;5043350;28;20463;-50
2023/04/10 05:37:43;;;;;;;0.80;0.80;;;;;;;3.94;98.10;100834.03;5044372;28;20490;-50
2023/04/10 05:40:09;;;;;;;2.23;1.50;;;;;;;4.05;97.83;100837.63;5036758;28;20508;-50
2023/04/10 05:42:36;;;;;;;6.13;1.80;;;;;;;4.18;97.17;100837.69;5037312;28;20456;-50
2023/04/10 05:45:03;;;;;;;0.90;0.90;;;;;;;4.24;97.48;100843.00;5044139;28;20484;-51
2023/04/10 05:47:29;;;;;;;1.10;0.83;;;;;;;4.40;97.42;100836.97;5020710;28;20443;-50
2023/04/10 05:49:56;;;;;;;1.17;0.70;;;;;;;4.55;97.01;100833.53;5047024;28;20533;-50
2023/04/10 05:52:22;;;;;;;3.87;2.67;;;;;;;4.57;96.97;100837.91;5042418;28;20452;-50
2023/04/10 05:54:50;;;;;;;0.50;0.50;;;;;;;4.69;96.28;100837.09;5042173;28;20443;-50
2023/04/10 05:57:17;;;;;;;1.60;1.50;;;;;;;4.58;96.73;100834.41;5041327;28;20523;-53
2023/04/10 05:59:43;;;;;;;2.03;1.83;;;;;;;4.66;96.32;100835.34;5047739;28;20451;-51
2023/04/10 06:02:10;;;;;;;4.33;2.10;;;;;;;4.73;97.38;100838.88;5045952;28;20582;-50
2023/04/10 06:04:37;;;;;;;3.13;2.23;;;;;;;4.80;97.07;100835.38;5039857;28;20520;-50
2023/04/10 06:07:04;;;;;;;1.60;1.50;;;;;;;4.74;97.62;100833.59;5041318;28;20454;-50
2023/04/10 06:09:30;;;;;;;5.80;2.10;;;;;;;4.78;97.41;100833.59;5049346;28;20820;-51
2023/04/10 06:11:57;;;;;;;2.23;2.03;;;;;;;4.85;97.47;100825.75;5039158;28;20459;-51
2023/04/10 06:14:23;;;;;;;2.23;1.57;;;;;;;5.00;96.85;100825.78;5031004;28;20499;-51
2023/04/10 06:16:49;;;;;;;2.57;2.37;;;;;;;5.12;97.28;100824.06;5018435;28;20491;-50
2023/04/10 06:19:16;;;;;;;6.37;2.43;;;;;;;5.14;98.84;100824.94;5029025;28;20503;-51
2023/04/10 06:21:42;;;;;;;3.33;2.03;;;;;;;5.22;98.32;100833.75;5022403;28;20857;-51
2023/04/10 06:24:09;;;;;;;2.43;1.97;;;;;;;5.33;98.96;100839.91;5044133;28;20501;-51
2023/04/10 06:26:38;;;;;;;2.80;2.70;;;;;;;5.17;99.33;100839.00;5032550;28;20511;-51
2023/04/10 06:29:05;;;;;;;2.23;2.13;;;;;;;5.35;99.63;100838.16;5045463;28;20444;-50
2023/04/10 06:31:34;;;;;;;1.00;1.00;;;;;;;5.58;99.72;100846.97;5025793;28;20466;-50
2023/04/10 06:34:00;;;;;;;3.33;2.03;;;;;;;5.61;99.70;100848.72;5040173;28;20539;-50
2023/04/10 06:36:27;;;;;;;3.33;2.73;;;;;;;5.83;98.10;100839.06;5035065;28;20558;-50
2023/04/10 06:38:53;;;;;;;3.10;2.90;;;;;;;6.02;98.11;100835.53;5029837;28;20537;-51
2023/04/10 06:41:20;;;;;;;2.87;2.30;;;;;;;6.19;98.89;100831.13;5031122;28;20960;-50
2023/04/10 06:43:47;;;;;;;3.50;1.80;;;;;;;6.23;97.52;100827.59;5036381;28;21058;-50
2023/04/10 06:46:14;;;;;;;2.63;2.37;;;;;;;6.08;99.37;100829.41;5039111;28;20546;-51
2023/04/10 06:48:41;;;;;;;2.90;2.07;;;;;;;6.22;98.22;100827.59;5045571;28;20456;-50
2023/04/10 06:51:07;;;;;;;7.80;0.90;;;;;;;6.33;99.46;100824.94;5045722;28;20451;-50
2023/04/10 06:53:34;;;;;;;1.77;1.67;;;;;;;6.78;97.95;100823.91;5038860;28;20550;-51
2023/04/10 06:56:01;;;;;;;3.63;3.33;;;;;;;6.82;96.78;100821.22;5038699;28;20452;-51
2023/04/10 06:58:29;;;;;;;2.07;1.87;;;;;;;7.06;96.02;100814.94;5044663;28;20535;-51
2023/04/10 07:00:56;;;;;;;3.43;3.23;;;;;;;7.17;95.57;100816.66;5027388;28;20469;-51
2023/04/10 07:03:23;;;;;;;2.33;2.07;;;;;;;7.54;94.23;100811.94;5039384;28;20570;-51
2023/04/10 07:05:49;;;;;;;2.70;2.57;;;;;;;7.65;94.07;100824.22;5038228;28;20502;-51
2023/04/10 07:08:16;;;;;;;2.03;1.80;;;;;;;7.80;93.39;100819.69;5043984;28;20454;-51
2023/04/10 07:10:43;;;;;;;2.77;2.57;;;;;;;7.97;93.60;100823.94;5042197;28;20454;-51
2023/04/10 07:13:09;;;;;;;2.77;2.67;;;;;;;8.25;92.40;100811.31;5039204;28;20994;-51
2023/04/10 07:15:35;;;;;;;5.10;4.60;;;;;;;8.28;92.16;100813.03;5038129;28;20814;-51
2023/04/10 07:18:02;;;;;;;2.37;2.17;;;;;;;8.36;91.30;100810.31;5044451;28;20493;-51
2023/04/10 07:20:28;;;;;;;7.63;3.90;;;;;;;8.78;90.45;100798.38;5044887;28;20490;-52
2023/04/10 07:22:55;;;;;;;2.57;2.40;;;;;;;8.97;89.05;100804.28;5039111;28;20842;-52
2023/04/10 07:25:22;;;;;;;3.93;3.63;;;;;;;9.14;89.14;100810.22;5020755;28;20459;-51
2023/04/10 07:27:48;;;;;;;6.27;3.93;;;;;;;9.03;89.77;100802.41;5044228;28;20448;-52
2023/04/10 07:30:14;;;;;;;3.50;3.30;;;;;;;9.19;89.63;100801.31;5033937;28;20815;-51
2023/04/10 07:32:41;;;;;;;8.03;5.30;;;;;;;9.62;89.94;100797.13;5042549;28;20479;-52
2023/04/10 07:35:08;;;;;;;1.57;1.47;;;;;;;9.70;88.36;100793.41;5042755;28;20456;-52
2023/04/10 07:37:34;;;;;;;3.23;2.93;;;;;;;9.75;88.08;100785.38;5042165;28;20909;-51
2023/04/10 07:40:01;;;;;;;6.07;4.67;;;;;;;9.80;88.40;100796.78;5044926;28;20505;-51
2023/04/10 07:42:28;;;;;;;2.37;2.17;;;;;;;10.22;87.14;100787.19;5040608;28;20838;-52
2023/04/10 07:44:54;;;;;;;3.23;2.73;;;;;;;10.26;85.09;100788.88;5038046;28;20989;-52
2023/04/10 07:47:20;;;;;;;2.97;2.77;;;;;;;10.12;84.81;100782.94;5042050;28;20451;-52
2023/04/10 07:49:47;;;;;;;12.30;3.00;;;;;;;10.31;85.31;100783.50;5044700;28;20459;-52
2023/04/10 07:52:13;;;;;;;4.93;3.70;;;;;;;10.68;82.56;100776.50;5042491;28;20455;-51
2023/04/10 07:54:40;;;;;;;4.20;3.50;;;;;;;11.04;80.53;100781.94;5041727;28;20475;-52
2023/04/10 07:57:06;;;;;;;5.20;4.80;;;;;;;11.28;78.84;100781.38;5045853;28;20495;-51
2023/04/10 07:59:33;;;;;;;4.93;4.40;;;;;;;11.40;78.71;100782.00;5048235;28;20457;-52
2023/04/10 08:01:59;;;;;;;8.73;6.23;;;;;;;11.63;75.84;100784.09;5044605;28;20846;-52
2023/04/10 08:04:25;;;;;;;3.60;3.40;;;;;;;11.63;72.03;100784.09;5041155;28;20509;-52
2023/04/10 08:06:52;;;;;;;3.53;3.33;;;;;;;11.56;72.27;100778.94;5045436;28;20467;-52
2023/04/10 08:09:19;;;;;;;3.97;3.40;;;;;;;11.93;70.68;100779.81;5030338;28;20860;-53
2023/04/10 08:11:45;;;;;;;5.33;3.60;;;;;;;12.06;70.82;100779.47;5044919;28;20450;-52
2023/04/10 08:14:12;;;;;;;5.43;4.93;;;;;;;12.17;69.79;100771.16;5041314;28;20473;-52
2023/04/10 08:16:44;;;;;;;4.37;4.07;;;;;;;12.48;69.50;100776.53;5043982;28;20518;-52
2023/04/10 08:19:10;;;;;;;3.07;2.87;;;;;;;12.54;67.93;100768.34;5048202;28;20455;-52
2023/04/10 08:21:37;;;;;;;10.47;5.00;;;;;;;12.38;67.92;100769.69;5045505;28;20446;-52
2023/04/10 08:24:03;;;;;;;4.23;3.20;;;;;;;12.68;66.92;100770.59;5040949;28;20909;-52
2023/04/10 08:26:30;;;;;;;6.50;3.50;;;;;;;12.65;67.29;100760.03;5043909;28;20811;-52
2023/04/10 08:28:58;;;;;;;4.37;4.07;;;;;;;12.95;66.39;100759.09;5047373;28;20455;-52
2023/04/10 08:31:26;;;;;;;7.37;6.23;;;;;;;13.10;64.71;100752.41;5046259;28;20447;-52
2023/04/10 08:33:53;;;;;;;5.07;3.60;;;;;;;13.05;59.64;100746.34;5040700;28;20494;-53
2023/04/10 08:36:21;;;;;;;2.83;2.30;;;;;;;13.27;58.92;100743.88;5050077;28;20461;-52
2023/04/10 08:38:47;;;;;;;2.30;2.00;;;;;;;13.19;58.32;100744.16;5040738;28;20970;-52
2023/04/10 08:41:15;;;;;;;3.30;2.40;;;;;;;13.36;58.31;100740.94;5041909;28;20539;-52
2023/04/10 08:43:44;;;;;;;2.53;2.33;;;;;;;13.56;57.51;100732.25;5047673;28;20474;-52
2023/04/10 08:46:12;;;;;;;1.60;1.50;;;;;;;13.70;56.81;100729.97;5047185;28;20447;-52
2023/04/10 08:48:52;;;;;;;2.50;2.30;;;;;;;13.67;56.33;100722.06;5027611;28;20447;-52
2023/04/10 08:51:19;;;;;;;3.20;3.00;;;;;;;13.71;56.02;100712.19;5040864;28;20471;-52
2023/04/10 08:53:54;;;;;;;3.13;2.57;;;;;;;14.18;56.43;100710.47;5044986;28;20468;-52
2023/04/10 08:56:22;;;;;;;1.93;1.83;;;;;;;14.03;55.33;100716.38;5047511;28;20498;-52
2023/04/10 08:58:50;;;;;;;3.20;1.97;;;;;;;13.77;54.26;100712.81;5043693;28;20854;-52
2023/04/10 09:01:19;;;;;;;4.50;2.80;;;;;;;13.66;54.31;100706.97;5033564;28;20641;-52
2023/04/10 09:03:47;;;;;;;5.00;2.77;;;;;;;13.89;53.53;100711.53;5045457;28;20471;-52
2023/04/10 09:06:13;;;;;;;2.70;2.50;;;;;;;13.99;54.38;100699.59;5040355;28;20866;-52
2023/04/10 09:08:40;;;;;;;2.47;2.20;;;;;;;13.95;52.95;100697.91;5043037;28;20454;-52
2023/04/10 09:11:06;;;;;;;1.50;1.40;;;;;;;14.08;52.97;100690.34;5044191;28;21019;-51
2023/04/10 09:13:41;;;;;;;2.53;1.97;;;;;;;13.98;52.68;100695.16;5044904;28;20567;-52
2023/04/10 09:16:09;;;;;;;2.03;1.93;;;;;;;13.93;52.44;100695.31;5040054;28;21007;-52
2023/04/10 09:18:40;;;;;;;3.20;2.07;;;;;;;13.90;52.87;100689.22;5040736;28;20526;-51
2023/04/10 09:21:11;;;;;;;1.57;1.47;;;;;;;13.84;52.29;100682.28;5027250;28;20827;-51
2023/04/10 09:23:37;;;;;;;2.93;2.83;;;;;;;14.10;53.02;100673.31;5039880;28;20562;-53
2023/04/10 09:26:23;;;;;;;4.63;1.50;;;;;;;14.06;52.75;100673.47;5045631;28;20455;-52
2023/04/10 09:29:00;;;;;;;1.30;1.20;;;;;;;14.30;52.73;100680.59;5050935;28;20438;-52
2023/04/10 09:31:32;;;;;;;4.87;2.47;;;;;;;14.21;51.99;100664.88;5040977;28;20482;-52
2023/04/10 09:34:10;;;;;;;2.27;2.07;;;;;;;14.47;51.75;100661.25;5046138;28;20475;-52
2023/04/10 09:36:39;;;;;;;3.00;2.47;;;;;;;14.29;52.09;100659.28;5030942;28;20494;-52
2023/04/10 09:39:08;;;;;;;2.33;2.13;;;;;;;14.44;52.09;100648.88;5044674;28;20482;-52
2023/04/10 09:41:45;;;;;;;2.67;2.43;;;;;;;14.52;51.46;100660.13;5032025;28;20448;-52
2023/04/10 09:44:11;;;;;;;11.00;2.93;;;;;;;14.35;52.18;100648.31;5044416;28;20474;-51
2023/04/10 09:46:38;;;;;;;2.60;1.97;;;;;;;14.32;52.30;100643.97;5039525;28;20954;-51
2023/04/10 09:49:06;;;;;;;1.47;1.37;;;;;;;14.59;51.56;100655.44;5042505;28;20563;-52
2023/04/10 09:51:34;;;;;;;2.20;2.10;;;;;;;14.74;51.72;100646.81;5046487;28;20454;-51
2023/04/10 09:54:02;;;;;;;11.43;2.60;;;;;;;14.97;52.47;100639.66;5043936;28;20604;-52
2023/04/10 09:56:30;;;;;;;2.60;2.30;;;;;;;15.36;52.66;100629.09;5039413;28;20470;-51
2023/04/10 09:58:58;;;;;;;1.97;1.87;;;;;;;15.33;52.47;100630.06;5041260;28;20494;-52
2023/04/10 10:01:27;;;;;;;1.93;1.83;;;;;;;15.63;52.77;100627.06;5046544;28;20452;-52
2023/04/10 10:03:55;;;;;;;3.60;2.57;;;;;;;15.61;52.49;100612.81;5044241;28;20987;-52
2023/04/10 10:06:22;;;;;;;2.27;2.07;;;;;;;15.80;50.71;100611.09;5039104;28;20450;-51
2023/04/10 10:08:49;;;;;;;3.00;2.80;;;;;;;15.79;50.11;100613.84;5040023;28;20443;-52
2023/04/10 10:11:25;;;;;;;5.27;2.17;;;;;;;16.27;50.18;100608.00;5044179;28;21046;-51
2023/04/10 10:13:55;;;;;;;4.60;3.00;;;;;;;16.22;50.17;100604.69;5025484;28;20475;-52
2023/04/10 10:16:48;;;;;;;4.13;2.13;;;;;;;16.32;49.20;100603.31;5043798;28;21023;-52
2023/04/10 10:19:15;;;;;;;3.47;2.00;;;;;;;16.87;48.65;100608.75;5045612;28;20492;-52
2023/04/10 10:21:43;;;;;;;3.13;2.93;;;;;;;16.49;49.17;100595.34;5030550;28;20460;-52
2023/04/10 10:24:11;;;;;;;3.53;2.80;;;;;;;16.37;49.60;100598.59;5045789;28;20479;-52
2023/04/10 10:26:39;;;;;;;2.07;1.87;;;;;;;16.55;48.65;100597.72;5034696;28;20534;-52
2023/04/10 10:29:09;;;;;;;2.07;1.97;;;;;;;16.67;47.59;100590.91;5045112;28;20877;-52
2023/04/10 10:31:37;;;;;;;2.30;1.67;;;;;;;16.86;47.76;100588.22;5045421;28;20453;-51
2023/04/10 10:34:05;;;;;;;2.83;2.50;;;;;;;17.10;46.07;100586.94;5025964;28;20509;-51
2023/04/10 10:36:33;;;;;;;3.43;3.10;;;;;;;16.70;46.10;100582.69;5047068;28;20455;-52
2023/04/10 10:39:32;;;;;;;1.87;1.77;;;;;;;16.68;46.11;100584.59;5039770;28;20494;-52
2023/04/10 10:42:07;;;;;;;9.73;1.77;;;;;;;16.73;46.10;100582.56;5037691;28;21034;-52
2023/04/10 10:45:00;;;;;;;2.77;2.47;;;;;;;16.82;44.43;100567.81;5021290;28;20550;-52
2023/04/10 10:47:29;;;;;;;2.40;2.20;;;;;;;17.11;44.17;100566.34;5032911;28;20885;-53
2023/04/10 10:49:57;;;;;;;2.00;1.90;;;;;;;16.45;44.59;100558.00;5021193;28;20442;-52
2023/04/10 10:52:43;;;;;;;3.83;1.77;;;;;;;16.71;45.22;100546.84;5041337;28;20501;-52
2023/04/10 10:55:30;;;;;;;7.03;2.10;;;;;;;17.33;43.47;100547.28;5019141;28;20916;-52
2023/04/10 10:58:00;;;;;;;2.00;1.90;;;;;;;16.86;45.19;100551.50;5045328;28;20487;-52
2023/04/10 11:00:49;;;;;;;3.97;1.70;;;;;;;17.05;44.06;100547.84;5041930;28;20534;-52
2023/04/10 11:03:15;;;;;;;4.73;3.43;;;;;;;17.47;44.25;100548.31;5038419;28;20470;-52
2023/04/10 11:06:01;;;;;;;2.87;2.03;;;;;;;17.28;43.77;100544.88;5038502;28;20468;-51
2023/04/10 11:08:44;;;;;;;4.30;2.20;;;;;;;17.59;44.49;100525.28;5041698;28;20440;-52
2023/04/10 11:11:11;;;;;;;1.20;1.10;;;;;;;17.56;44.30;100532.66;5022785;28;20450;-52
2023/04/10 11:13:40;;;;;;;2.87;2.67;;;;;;;17.31;45.23;100528.56;5043549;28;20466;-52
2023/04/10 11:16:09;;;;;;;1.90;1.80;;;;;;;17.67;43.90;100530.22;5034015;28;20454;-52
2023/04/10 11:19:00;;;;;;;3.13;2.83;;;;;;;17.73;44.56;100529.94;5039080;28;20462;-52
2023/04/10 11:22:07;;;;;;;1.83;1.40;;;;;;;18.05;43.86;100520.97;5019112;28;20505;-52
2023/04/10 11:24:58;;;;;;;1.70;1.57;;;;;;;17.46;41.98;100527.75;5011316;28;20493;-52
2023/04/10 11:27:50;;;;;;;5.07;3.27;;;;;;;17.63;43.07;100517.91;5040225;28;20438;-52
2023/04/10 11:30:31;;;;;;;1.83;1.10;;;;;;;17.60;43.02;100507.34;5040448;28;20463;-51
2023/04/10 11:32:59;;;;;;;1.57;1.47;;;;;;;18.11;42.35;100502.75;5044317;28;20483;-52
2023/04/10 11:35:27;;;;;;;1.80;1.70;;;;;;;17.48;42.33;100498.09;5049684;28;20806;-52
2023/04/10 11:38:11;;;;;;;1.57;1.47;;;;;;;18.22;42.96;100490.41;5043960;28;20526;-52